Time;durP1;ratioP1;P1;durP2;ratioP2;P2;SDS_P1;SDS_P2;PMS_P1;PMS_P2;Temp;Humidity;BMP_temperature;BMP_pressure;BME280_temperature;BME280_humidity;BME280_pressure;Samples;Min_cycle;Max_cycle;Signal;HPM_P1;HPM_P2
2021/03/06 00:02:07;;;;;;;3.63;2.30;;;23.80;42.40;;;;;;4991987;28;20129;-53
2021/03/06 00:04:33;;;;;;;3.47;2.10;;;23.70;42.40;;;;;;5006011;28;20542;-55
2021/03/06 00:06:59;;;;;;;3.53;2.17;;;23.70;42.40;;;;;;5006474;28;20037;-60
2021/03/06 00:09:24;;;;;;;3.22;2.25;;;23.70;42.50;;;;;;5008796;28;20029;-57
2021/03/06 00:11:50;;;;;;;3.45;2.20;;;23.70;42.50;;;;;;5012792;28;20053;-55
2021/03/06 00:14:15;;;;;;;3.10;2.20;;;23.70;42.50;;;;;;5010918;28;20440;-56
2021/03/06 00:16:41;;;;;;;3.38;2.10;;;23.70;42.50;;;;;;5010118;28;20123;-59
2021/03/06 00:19:07;;;;;;;3.65;2.17;;;23.60;42.50;;;;;;5010995;28;20038;-58
2021/03/06 00:21:32;;;;;;;3.25;2.20;;;23.60;42.50;;;;;;5002031;28;20022;-53
2021/03/06 00:23:58;;;;;;;3.30;2.30;;;23.60;42.50;;;;;;5008882;28;20694;-54
2021/03/06 00:26:23;;;;;;;3.92;2.08;;;23.60;42.60;;;;;;5011868;28;20030;-57
2021/03/06 00:28:49;;;;;;;3.33;2.20;;;23.50;42.50;;;;;;5009178;28;20101;-54
2021/03/06 00:31:15;;;;;;;3.10;1.85;;;23.50;42.50;;;;;;5000658;28;20054;-53
2021/03/06 00:33:40;;;;;;;2.80;2.00;;;23.50;42.60;;;;;;5000416;28;20033;-55
2021/03/06 00:36:06;;;;;;;3.10;2.00;;;23.50;42.60;;;;;;4998376;28;20049;-58
2021/03/06 00:38:32;;;;;;;3.30;2.20;;;23.40;42.60;;;;;;5011356;28;20041;-58
2021/03/06 00:40:58;;;;;;;3.30;2.08;;;23.40;42.60;;;;;;5009722;28;20025;-61
2021/03/06 00:43:23;;;;;;;2.95;2.00;;;23.40;42.60;;;;;;5009131;28;20390;-61
2021/03/06 00:45:49;;;;;;;2.90;2.10;;;23.40;42.60;;;;;;5009452;28;20034;-55
2021/03/06 00:48:15;;;;;;;3.53;2.20;;;23.40;42.70;;;;;;5008562;28;20109;-55
2021/03/06 00:50:40;;;;;;;2.97;1.95;;;23.30;42.70;;;;;;5009289;28;20038;-53
2021/03/06 00:53:06;;;;;;;3.03;2.00;;;23.30;42.70;;;;;;4997017;28;20034;-55
2021/03/06 00:55:32;;;;;;;2.95;1.92;;;23.30;42.70;;;;;;5010513;28;20033;-57
2021/03/06 00:57:57;;;;;;;2.65;1.60;;;23.30;42.70;;;;;;5009064;28;20043;-60
2021/03/06 01:00:23;;;;;;;3.65;2.15;;;23.30;42.70;;;;;;5004237;28;20813;-57
2021/03/06 01:02:49;;;;;;;2.55;1.90;;;23.20;42.70;;;;;;5011212;28;20108;-59
2021/03/06 01:05:15;;;;;;;3.22;1.88;;;23.20;42.70;;;;;;5003990;28;20023;-56
2021/03/06 01:07:41;;;;;;;2.92;1.90;;;23.20;43.30;;;;;;5008440;28;20042;-59
2021/03/06 01:10:14;;;;;;;3.53;1.95;;;23.20;42.80;;;;;;5011251;28;20496;-56
2021/03/06 01:12:39;;;;;;;3.08;1.88;;;23.10;42.70;;;;;;5003002;28;20049;-56
2021/03/06 01:15:06;;;;;;;2.92;1.85;;;23.10;42.80;;;;;;5010078;28;20041;-57
2021/03/06 01:17:32;;;;;;;2.47;1.65;;;23.10;42.80;;;;;;5009997;28;20109;-58
2021/03/06 01:19:58;;;;;;;2.97;1.70;;;23.10;42.80;;;;;;5009827;28;20180;-58
2021/03/06 01:22:23;;;;;;;2.50;1.70;;;23.00;42.70;;;;;;5010213;28;20041;-57
2021/03/06 01:24:49;;;;;;;2.17;1.60;;;23.00;42.80;;;;;;5010713;28;20065;-55
2021/03/06 01:27:15;;;;;;;2.28;1.60;;;23.00;42.80;;;;;;5010249;28;20034;-56
2021/03/06 01:29:40;;;;;;;2.72;1.80;;;23.00;42.80;;;;;;5009543;28;20114;-56
2021/03/06 01:32:06;;;;;;;2.47;1.60;;;23.00;42.90;;;;;;5010185;28;20038;-57
2021/03/06 01:34:32;;;;;;;2.75;1.77;;;23.00;42.90;;;;;;5000908;28;20033;-54
2021/03/06 01:36:57;;;;;;;2.78;1.60;;;22.90;43.00;;;;;;5004719;28;20381;-55
2021/03/06 01:39:24;;;;;;;2.60;1.80;;;22.90;43.00;;;;;;5008356;28;20476;-58
2021/03/06 01:41:50;;;;;;;2.40;1.60;;;22.80;42.90;;;;;;5010866;28;20030;-57
2021/03/06 01:44:16;;;;;;;2.65;1.90;;;22.90;43.00;;;;;;5004033;28;20041;-54
2021/03/06 01:46:42;;;;;;;2.65;1.70;;;22.80;43.00;;;;;;5009743;28;20044;-58
2021/03/06 01:49:08;;;;;;;2.60;1.70;;;22.80;43.00;;;;;;5010037;28;20049;-57
2021/03/06 01:51:34;;;;;;;2.38;1.50;;;22.80;43.00;;;;;;5009360;28;20065;-55
2021/03/06 01:54:02;;;;;;;3.53;1.80;;;22.80;43.10;;;;;;5009788;28;20038;-56
2021/03/06 01:56:31;;;;;;;2.97;1.70;;;22.80;43.10;;;;;;5010311;28;20025;-54
2021/03/06 01:58:56;;;;;;;2.75;1.60;;;22.70;43.00;;;;;;5008573;28;20053;-56
2021/03/06 02:01:22;;;;;;;2.50;1.60;;;22.70;43.10;;;;;;5015116;28;20093;-57
2021/03/06 02:03:48;;;;;;;2.47;1.60;;;22.70;43.10;;;;;;5001976;28;20041;-52
2021/03/06 02:06:15;;;;;;;2.00;1.42;;;22.70;43.10;;;;;;5007928;28;20029;-56
2021/03/06 02:08:40;;;;;;;2.30;1.60;;;22.70;43.10;;;;;;5008447;28;20038;-55
2021/03/06 02:11:06;;;;;;;2.50;1.70;;;22.60;43.10;;;;;;5008164;28;20072;-57
2021/03/06 02:13:51;;;;;;;2.53;1.60;;;22.60;43.10;;;;;;5008564;28;20025;-55
2021/03/06 02:16:43;;;;;;;2.10;1.58;;;22.60;43.20;;;;;;5009340;28;20604;-56
2021/03/06 02:19:36;;;;;;;2.03;1.45;;;22.60;43.20;;;;;;5007051;28;20026;-58
2021/03/06 02:22:24;;;;;;;2.30;1.50;;;22.50;43.20;;;;;;5009249;28;20054;-57
2021/03/06 02:24:49;;;;;;;2.10;1.40;;;22.50;43.20;;;;;;5009443;28;20022;-53
2021/03/06 02:27:31;;;;;;;2.05;1.45;;;22.50;43.20;;;;;;5007813;28;20552;-56
2021/03/06 02:30:03;;;;;;;2.20;1.48;;;22.50;43.30;;;;;;5006776;28;20116;-56
2021/03/06 02:32:34;;;;;;;2.20;1.50;;;22.40;43.30;;;;;;5005338;28;20038;-55
2021/03/06 02:35:05;;;;;;;1.60;1.23;;;22.40;43.30;;;;;;4998705;28;20086;-56
2021/03/06 02:37:33;;;;;;;2.60;1.63;;;22.40;43.30;;;;;;4999006;28;20030;-56
2021/03/06 02:40:00;;;;;;;2.10;1.40;;;22.40;43.30;;;;;;5002862;28;20038;-59
2021/03/06 02:42:29;;;;;;;2.30;1.40;;;22.40;43.40;;;;;;5008007;28;20473;-57
2021/03/06 02:44:56;;;;;;;2.08;1.42;;;22.30;43.30;;;;;;5006494;28;20026;-58
2021/03/06 02:47:22;;;;;;;1.85;1.38;;;22.40;43.40;;;;;;5008080;28;20042;-56
2021/03/06 02:49:52;;;;;;;2.13;1.40;;;22.30;43.30;;;;;;5008717;28;20029;-53
2021/03/06 02:52:19;;;;;;;2.40;1.42;;;22.30;43.30;;;;;;5003233;28;20034;-58
2021/03/06 02:54:45;;;;;;;2.05;1.30;;;22.30;43.40;;;;;;5006746;28;20388;-51
2021/03/06 02:57:18;;;;;;;2.10;1.58;;;22.30;43.40;;;;;;5008677;28;20133;-58
2021/03/06 03:00:04;;;;;;;2.08;1.38;;;22.30;43.40;;;;;;5007733;28;20030;-56
2021/03/06 03:02:38;;;;;;;2.08;1.40;;;22.20;43.30;;;;;;5006979;28;20477;-57
2021/03/06 03:05:20;;;;;;;2.20;1.33;;;22.20;43.40;;;;;;5005456;28;20018;-57
2021/03/06 03:07:50;;;;;;;1.98;1.40;;;22.20;43.40;;;;;;5004307;28;20038;-57
2021/03/06 03:10:18;;;;;;;1.70;1.15;;;22.20;43.40;;;;;;5002970;28;20034;-57
2021/03/06 03:12:56;;;;;;;2.00;1.40;;;22.20;43.40;;;;;;5005880;28;20057;-55
2021/03/06 03:15:40;;;;;;;2.10;1.42;;;22.20;43.40;;;;;;5006294;28;20108;-55
2021/03/06 03:18:13;;;;;;;1.85;1.23;;;22.20;43.40;;;;;;5005092;28;20034;-58
2021/03/06 03:20:51;;;;;;;1.70;1.20;;;22.20;43.40;;;;;;5008062;28;20029;-53
2021/03/06 03:23:39;;;;;;;2.25;1.30;;;22.10;43.40;;;;;;5005437;28;20426;-56
2021/03/06 03:26:11;;;;;;;2.03;1.35;;;22.10;43.40;;;;;;5008825;28;20026;-57
2021/03/06 03:28:40;;;;;;;1.95;1.30;;;22.10;43.40;;;;;;5005416;28;20508;-60
2021/03/06 03:31:07;;;;;;;2.65;1.30;;;22.10;43.40;;;;;;5005283;28;20484;-54
2021/03/06 03:33:35;;;;;;;2.40;1.45;;;22.10;43.50;;;;;;5005257;28;20046;-59
2021/03/06 03:36:02;;;;;;;1.73;1.30;;;22.10;44.00;;;;;;5003871;28;20105;-54
2021/03/06 03:38:28;;;;;;;1.65;1.20;;;22.10;43.50;;;;;;5006266;28;20038;-57
2021/03/06 03:40:54;;;;;;;1.92;1.30;;;22.10;43.50;;;;;;5008378;28;20041;-53
2021/03/06 03:43:22;;;;;;;1.50;1.20;;;22.10;43.50;;;;;;5004916;28;20128;-58
2021/03/06 03:45:48;;;;;;;1.83;1.20;;;22.00;43.50;;;;;;5004145;28;20057;-60
2021/03/06 03:48:15;;;;;;;2.22;1.42;;;22.00;43.50;;;;;;5003364;28;20353;-59
2021/03/06 03:50:41;;;;;;;2.47;1.40;;;22.00;43.50;;;;;;5007961;28;20026;-60
2021/03/06 03:53:06;;;;;;;2.35;1.30;;;22.00;43.50;;;;;;5005902;28;20429;-56
2021/03/06 03:55:32;;;;;;;2.58;1.20;;;22.00;43.60;;;;;;5008237;28;20112;-53
2021/03/06 03:57:58;;;;;;;1.70;1.23;;;22.00;43.60;;;;;;5005704;28;20037;-52
2021/03/06 04:00:24;;;;;;;1.70;1.20;;;22.00;43.60;;;;;;5006770;28;20037;-60
2021/03/06 04:02:50;;;;;;;2.35;1.30;;;22.00;44.10;;;;;;5005776;28;20358;-60
2021/03/06 04:05:16;;;;;;;1.88;1.13;;;22.00;43.60;;;;;;5006930;28;20037;-59
2021/03/06 04:07:49;;;;;;;1.77;1.17;;;22.00;43.60;;;;;;5006670;28;20030;-59
2021/03/06 04:10:23;;;;;;;2.13;1.10;;;21.90;43.60;;;;;;5001776;28;20092;-52
2021/03/06 04:12:50;;;;;;;2.00;1.30;;;21.90;43.60;;;;;;5007306;28;20084;-57
2021/03/06 04:15:16;;;;;;;1.90;1.20;;;21.90;43.60;;;;;;5007067;28;20018;-54
2021/03/06 04:17:43;;;;;;;2.20;1.33;;;21.90;44.10;;;;;;5007018;28;20030;-58
2021/03/06 04:20:12;;;;;;;1.80;1.10;;;21.80;43.60;;;;;;5007672;28;20037;-55
2021/03/06 04:22:37;;;;;;;1.58;1.05;;;21.90;43.60;;;;;;5001688;28;20029;-56
2021/03/06 04:25:05;;;;;;;1.50;1.10;;;21.90;43.60;;;;;;5007900;28;20056;-56
2021/03/06 04:27:31;;;;;;;1.65;1.20;;;21.90;43.60;;;;;;5007036;28;20033;-57
2021/03/06 04:29:57;;;;;;;1.70;1.20;;;21.90;43.60;;;;;;5006431;28;20026;-54
2021/03/06 04:32:22;;;;;;;2.08;1.20;;;21.90;43.70;;;;;;5005438;28;20052;-55
2021/03/06 04:34:48;;;;;;;1.60;1.10;;;21.90;43.70;;;;;;4996140;28;20033;-60
2021/03/06 04:37:14;;;;;;;1.40;0.93;;;21.80;43.60;;;;;;5000408;28;20038;-57
2021/03/06 04:39:39;;;;;;;2.30;1.20;;;21.80;43.60;;;;;;5006147;28;20040;-55
2021/03/06 04:42:05;;;;;;;1.85;1.10;;;21.80;43.70;;;;;;5006838;28;20069;-58
2021/03/06 04:44:31;;;;;;;1.67;1.10;;;21.80;43.60;;;;;;5006158;28;20044;-56
2021/03/06 04:46:56;;;;;;;1.55;1.02;;;21.80;43.70;;;;;;5004388;28;20023;-57
2021/03/06 04:49:22;;;;;;;1.70;1.10;;;21.80;43.70;;;;;;5001372;28;20022;-55
2021/03/06 04:51:49;;;;;;;1.63;1.10;;;21.80;43.70;;;;;;5003128;28;20033;-58
2021/03/06 04:54:14;;;;;;;1.52;1.00;;;21.80;43.70;;;;;;5005527;28;20026;-56
2021/03/06 04:56:40;;;;;;;1.65;1.08;;;21.80;43.70;;;;;;5009411;28;20029;-57
2021/03/06 04:59:06;;;;;;;1.67;1.00;;;21.80;43.70;;;;;;5009601;28;20056;-52
2021/03/06 05:01:31;;;;;;;1.80;1.20;;;21.80;43.70;;;;;;5005562;28;20038;-55
2021/03/06 05:03:57;;;;;;;1.10;0.90;;;21.80;43.70;;;;;;5010103;28;20025;-55
2021/03/06 05:06:22;;;;;;;1.67;1.20;;;21.70;43.70;;;;;;5009151;28;20200;-54
2021/03/06 05:08:48;;;;;;;1.52;1.10;;;21.70;43.70;;;;;;5008925;28;20026;-59
2021/03/06 05:11:14;;;;;;;1.70;1.17;;;21.70;44.20;;;;;;5009511;28;20152;-57
2021/03/06 05:13:39;;;;;;;1.08;0.88;;;21.70;43.70;;;;;;5008341;28;20483;-59
2021/03/06 05:16:06;;;;;;;2.08;1.10;;;21.70;43.70;;;;;;5011469;28;20065;-53
2021/03/06 05:18:31;;;;;;;1.90;1.20;;;21.70;43.70;;;;;;5007807;28;20033;-58
2021/03/06 05:20:58;;;;;;;1.38;1.00;;;21.70;43.70;;;;;;5015044;28;20572;-53
2021/03/06 05:23:24;;;;;;;1.35;1.00;;;21.70;43.70;;;;;;5008844;28;20111;-54
2021/03/06 05:25:50;;;;;;;1.42;1.00;;;21.70;43.70;;;;;;5010283;28;20029;-53
2021/03/06 05:28:20;;;;;;;1.63;1.00;;;21.70;43.70;;;;;;5008485;28;20026;-60
2021/03/06 05:30:46;;;;;;;1.23;0.95;;;21.70;43.70;;;;;;5009669;28;20034;-59
2021/03/06 05:33:13;;;;;;;1.33;1.00;;;21.70;43.70;;;;;;5004362;28;20034;-58
2021/03/06 05:35:39;;;;;;;1.48;1.00;;;21.70;43.70;;;;;;5012909;28;20058;-53
2021/03/06 05:38:05;;;;;;;1.85;0.95;;;21.70;43.70;;;;;;5006699;28;20444;-50
2021/03/06 05:40:36;;;;;;;1.35;0.90;;;21.70;44.30;;;;;;5006662;28;20465;-56
2021/03/06 05:43:02;;;;;;;1.50;0.95;;;21.60;43.70;;;;;;5003966;28;20143;-58
2021/03/06 05:45:28;;;;;;;1.55;0.98;;;21.60;43.70;;;;;;5008732;28;20053;-58
2021/03/06 05:47:59;;;;;;;1.00;0.80;;;21.60;43.70;;;;;;5008534;28;20061;-57
2021/03/06 05:50:29;;;;;;;1.83;1.00;;;21.60;43.70;;;;;;5003039;28;20030;-57
2021/03/06 05:52:59;;;;;;;1.40;0.80;;;21.60;43.70;;;;;;5009022;28;20084;-55
2021/03/06 05:55:28;;;;;;;1.95;0.95;;;21.60;43.70;;;;;;5003305;28;20112;-55
2021/03/06 05:57:56;;;;;;;1.38;0.88;;;21.60;43.70;;;;;;5006081;28;20155;-55
2021/03/06 06:00:22;;;;;;;1.92;0.95;;;21.60;43.70;;;;;;5005559;28;20467;-59
2021/03/06 06:02:53;;;;;;;1.30;0.90;;;21.60;43.80;;;;;;5008273;28;20544;-59
2021/03/06 06:05:19;;;;;;;1.30;0.90;;;21.60;43.70;;;;;;5009327;28;20030;-57
2021/03/06 06:07:46;;;;;;;1.00;0.80;;;21.60;43.70;;;;;;5008461;28;20042;-56
2021/03/06 06:10:12;;;;;;;0.90;0.70;;;21.60;43.80;;;;;;5009061;28;20456;-56
2021/03/06 06:12:40;;;;;;;2.20;1.10;;;21.60;43.80;;;;;;5009546;28;20030;-56
2021/03/06 06:15:07;;;;;;;1.33;0.90;;;21.60;43.80;;;;;;5008128;28;20469;-53
2021/03/06 06:17:32;;;;;;;1.00;0.80;;;21.60;43.80;;;;;;5004842;28;20500;-57
2021/03/06 06:19:59;;;;;;;0.90;0.80;;;21.60;43.90;;;;;;5007538;28;20100;-55
2021/03/06 06:22:27;;;;;;;1.75;0.90;;;21.60;43.80;;;;;;5009117;28;20058;-58
2021/03/06 06:24:53;;;;;;;1.55;1.00;;;21.60;44.40;;;;;;5008591;28;20026;-55
2021/03/06 06:27:33;;;;;;;1.30;0.90;;;21.60;43.90;;;;;;5008228;28;20033;-56
2021/03/06 06:30:00;;;;;;;1.38;0.98;;;21.60;43.90;;;;;;5000919;28;20726;-56
2021/03/06 06:32:39;;;;;;;1.08;0.80;;;21.60;43.90;;;;;;5003001;28;20038;-56
2021/03/06 06:35:07;;;;;;;1.10;0.77;;;21.50;43.90;;;;;;5005351;28;20500;-54
2021/03/06 06:37:34;;;;;;;2.03;1.00;;;21.60;43.90;;;;;;5007179;28;20044;-59
2021/03/06 06:40:14;;;;;;;1.42;0.82;;;21.50;43.90;;;;;;5002642;28;20030;-55
2021/03/06 06:42:41;;;;;;;1.33;0.93;;;21.50;43.90;;;;;;5007042;28;20033;-57
2021/03/06 06:45:08;;;;;;;1.42;0.85;;;21.50;43.90;;;;;;5008913;28;20788;-54
2021/03/06 06:47:38;;;;;;;1.73;1.00;;;21.50;43.90;;;;;;5004804;28;20084;-57
2021/03/06 06:50:05;;;;;;;1.42;0.90;;;21.50;43.90;;;;;;5006715;28;20057;-57
2021/03/06 06:52:39;;;;;;;2.13;0.93;;;21.50;43.90;;;;;;5009082;28;20025;-55
2021/03/06 06:55:07;;;;;;;1.10;0.80;;;21.50;43.90;;;;;;5008619;28;20064;-53
2021/03/06 06:57:33;;;;;;;1.40;1.00;;;21.50;43.90;;;;;;5007288;28;20041;-55
2021/03/06 07:00:00;;;;;;;1.80;0.90;;;21.50;43.90;;;;;;5007165;28;20109;-58
2021/03/06 07:02:27;;;;;;;1.77;0.93;;;21.50;43.90;;;;;;4999830;28;20074;-57
2021/03/06 07:05:01;;;;;;;1.45;0.80;;;21.50;44.40;;;;;;5008241;28;20038;-51
2021/03/06 07:07:41;;;;;;;0.95;0.80;;;21.50;43.90;;;;;;5003798;28;21826;-56
2021/03/06 07:10:08;;;;;;;1.48;0.90;;;21.50;43.90;;;;;;5007767;28;20064;-54
2021/03/06 07:12:39;;;;;;;1.52;0.90;;;21.50;43.90;;;;;;5007933;28;20034;-55
2021/03/06 07:15:11;;;;;;;1.35;0.93;;;21.50;43.90;;;;;;5007684;28;20050;-58
2021/03/06 07:17:44;;;;;;;2.70;1.00;;;21.50;43.90;;;;;;5004466;28;20030;-56
2021/03/06 07:20:26;;;;;;;1.27;0.80;;;21.50;43.90;;;;;;5005951;28;20369;-50
2021/03/06 07:22:54;;;;;;;1.80;1.10;;;21.50;43.90;;;;;;5001415;28;20034;-57
2021/03/06 07:25:21;;;;;;;1.13;0.77;;;21.50;44.00;;;;;;5008267;28;20030;-59
2021/03/06 07:27:47;;;;;;;1.48;0.95;;;21.50;44.00;;;;;;5007082;28;20031;-57
2021/03/06 07:30:14;;;;;;;2.65;1.08;;;21.50;43.90;;;;;;5004733;28;20040;-56
2021/03/06 07:32:42;;;;;;;1.40;0.82;;;21.50;44.00;;;;;;5004338;28;20093;-56
2021/03/06 07:35:10;;;;;;;1.85;0.80;;;21.50;44.00;;;;;;5007744;28;20053;-60
2021/03/06 07:37:37;;;;;;;1.33;0.85;;;21.50;44.00;;;;;;5001046;28;20105;-54
2021/03/06 07:40:08;;;;;;;1.35;0.90;;;21.50;44.00;;;;;;5007107;28;20124;-59
2021/03/06 07:42:47;;;;;;;1.83;0.90;;;21.50;44.00;;;;;;5006528;28;20045;-57
2021/03/06 07:45:19;;;;;;;1.85;1.00;;;21.50;44.00;;;;;;5002917;28;20550;-56
2021/03/06 07:47:49;;;;;;;1.40;1.00;;;21.50;44.00;;;;;;5017584;28;20592;-55
2021/03/06 07:50:37;;;;;;;1.67;0.90;;;21.50;44.10;;;;;;5006714;28;20030;-59
2021/03/06 07:53:03;;;;;;;1.40;0.80;;;21.50;44.10;;;;;;5005048;28;20029;-58
2021/03/06 07:55:31;;;;;;;1.20;0.90;;;21.50;44.10;;;;;;5005086;28;20326;-55
2021/03/06 07:58:10;;;;;;;1.58;0.82;;;21.40;44.10;;;;;;5005731;28;20022;-54
2021/03/06 08:00:57;;;;;;;1.50;0.90;;;21.40;44.10;;;;;;4997672;28;20177;-58
2021/03/06 08:03:23;;;;;;;1.15;0.80;;;21.50;44.20;;;;;;5004980;28;20117;-57
2021/03/06 08:05:51;;;;;;;1.65;0.80;;;21.50;44.20;;;;;;5006689;28;20117;-55
2021/03/06 08:08:32;;;;;;;1.42;0.70;;;21.40;44.20;;;;;;5006949;28;20488;-54
2021/03/06 08:11:06;;;;;;;1.45;0.90;;;21.40;44.20;;;;;;5014442;28;20104;-55
2021/03/06 08:14:05;;;;;;;2.53;0.80;;;21.40;44.20;;;;;;5010112;28;20581;-54
2021/03/06 08:16:31;;;;;;;1.70;0.95;;;21.40;44.30;;;;;;4988590;28;20029;-58
2021/03/06 08:19:13;;;;;;;2.10;0.90;;;21.40;44.30;;;;;;5006660;28;20500;-57
2021/03/06 08:21:44;;;;;;;1.40;0.77;;;21.40;44.30;;;;;;5006151;28;20044;-56
2021/03/06 08:24:15;;;;;;;1.25;0.80;;;21.40;44.30;;;;;;5005287;28;20030;-57
2021/03/06 08:27:03;;;;;;;1.58;0.70;;;21.40;44.30;;;;;;5005322;28;20032;-55
2021/03/06 08:29:29;;;;;;;1.05;0.60;;;21.40;44.30;;;;;;5004029;28;20741;-55
2021/03/06 08:32:13;;;;;;;1.45;0.75;;;21.40;44.30;;;;;;5007733;28;20034;-54
2021/03/06 08:34:48;;;;;;;1.67;0.80;;;21.40;44.30;;;;;;5010820;28;20036;-57
2021/03/06 08:37:14;;;;;;;1.40;0.75;;;21.40;44.30;;;;;;5004034;28;20385;-53
2021/03/06 08:39:43;;;;;;;1.27;0.70;;;21.40;44.30;;;;;;5003326;28;20037;-53
2021/03/06 08:42:10;;;;;;;1.27;0.70;;;21.40;44.80;;;;;;5003165;28;20029;-57
2021/03/06 08:44:36;;;;;;;1.85;0.80;;;21.40;44.30;;;;;;5008782;28;20073;-55
2021/03/06 08:47:03;;;;;;;1.23;0.80;;;21.40;44.40;;;;;;5011036;28;20045;-53
2021/03/06 08:49:31;;;;;;;2.15;0.88;;;21.40;44.40;;;;;;5009650;28;20069;-54
2021/03/06 08:51:57;;;;;;;1.63;0.73;;;21.40;44.50;;;;;;5008154;28;20029;-53
2021/03/06 08:54:23;;;;;;;3.25;0.75;;;21.40;45.00;;;;;;5010613;28;20342;-55
2021/03/06 08:56:49;;;;;;;2.47;0.70;;;21.40;44.40;;;;;;5011593;28;20112;-55
2021/03/06 08:59:15;;;;;;;1.92;0.85;;;21.40;44.50;;;;;;5008930;28;20112;-57
2021/03/06 09:01:41;;;;;;;2.35;0.73;;;21.40;44.50;;;;;;5009309;28;20145;-54
2021/03/06 09:04:07;;;;;;;1.67;0.88;;;21.40;44.50;;;;;;5010568;28;20033;-55
2021/03/06 09:06:40;;;;;;;1.63;0.80;;;21.40;44.50;;;;;;5008657;28;20036;-55
2021/03/06 09:09:09;;;;;;;1.30;0.70;;;21.40;44.50;;;;;;5009449;28;20045;-53
2021/03/06 09:11:36;;;;;;;2.20;0.70;;;21.40;44.50;;;;;;5009844;28;20033;-52
2021/03/06 09:14:02;;;;;;;2.38;0.70;;;21.40;44.50;;;;;;5005648;28;20038;-56
2021/03/06 09:16:28;;;;;;;1.98;0.70;;;21.40;44.50;;;;;;5007225;28;20534;-61
2021/03/06 09:18:54;;;;;;;2.83;0.73;;;21.40;44.50;;;;;;5004556;28;20133;-60
2021/03/06 09:21:20;;;;;;;1.73;0.90;;;21.40;44.50;;;;;;5008793;28;20125;-61
2021/03/06 09:23:48;;;;;;;1.95;0.80;;;21.40;44.50;;;;;;5006836;28;20030;-59
2021/03/06 09:26:19;;;;;;;1.38;0.70;;;21.40;44.50;;;;;;4998429;28;20033;-55
2021/03/06 09:28:56;;;;;;;1.10;0.60;;;21.40;45.10;;;;;;5003461;28;20045;-52
2021/03/06 09:31:27;;;;;;;1.95;0.80;;;21.40;44.50;;;;;;5010166;28;20457;-62
2021/03/06 09:33:54;;;;;;;1.75;0.80;;;21.40;44.50;;;;;;5008661;28;20057;-57
2021/03/06 09:36:22;;;;;;;1.67;0.88;;;21.40;44.50;;;;;;5007826;28;20079;-56
2021/03/06 09:38:49;;;;;;;1.45;0.80;;;21.40;44.50;;;;;;5006945;28;20033;-58
2021/03/06 09:41:20;;;;;;;2.67;1.02;;;21.40;44.60;;;;;;5006683;28;20033;-57
2021/03/06 09:43:53;;;;;;;1.27;0.70;;;21.40;44.60;;;;;;5003051;28;20034;-57
2021/03/06 09:46:24;;;;;;;1.48;0.77;;;21.40;44.60;;;;;;5006887;28;20026;-54
2021/03/06 09:49:03;;;;;;;1.42;0.90;;;21.40;44.60;;;;;;5006682;28;20049;-56
2021/03/06 09:51:41;;;;;;;1.55;0.70;;;21.40;44.60;;;;;;5007749;28;20370;-58
2021/03/06 09:54:07;;;;;;;1.17;0.77;;;21.40;44.60;;;;;;5003966;28;20091;-57
2021/03/06 09:56:33;;;;;;;2.28;0.70;;;21.40;44.60;;;;;;5008727;28;20033;-56
2021/03/06 09:59:05;;;;;;;1.17;0.80;;;21.40;44.60;;;;;;4998248;28;20115;-57
2021/03/06 10:01:33;;;;;;;2.05;0.70;;;21.40;44.60;;;;;;5003457;28;20150;-58
2021/03/06 10:04:07;;;;;;;2.53;0.70;;;21.40;44.60;;;;;;5005057;28;20114;-54
2021/03/06 10:06:36;;;;;;;1.20;0.80;;;21.40;44.60;;;;;;5003411;28;20726;-61
2021/03/06 10:09:04;;;;;;;1.98;0.80;;;21.40;44.60;;;;;;5003812;28;20036;-58
2021/03/06 10:11:35;;;;;;;1.60;0.80;;;21.40;44.60;;;;;;5003067;28;20550;-60
2021/03/06 10:14:02;;;;;;;2.38;0.90;;;21.40;44.60;;;;;;5002301;28;20068;-58
2021/03/06 10:16:29;;;;;;;1.58;0.77;;;21.40;44.60;;;;;;5006728;28;20079;-60
2021/03/06 10:19:01;;;;;;;1.38;0.80;;;21.40;44.60;;;;;;5008115;28;20022;-59
2021/03/06 10:21:27;;;;;;;1.83;0.90;;;21.40;44.60;;;;;;5006467;28;20801;-58
2021/03/06 10:24:01;;;;;;;1.38;0.70;;;21.40;44.60;;;;;;5004804;28;20121;-60
2021/03/06 10:26:27;;;;;;;1.58;0.70;;;21.40;44.50;;;;;;5006446;28;20026;-58
2021/03/06 10:29:01;;;;;;;1.38;0.80;;;21.40;44.50;;;;;;5003356;28;20479;-57
2021/03/06 10:31:37;;;;;;;1.95;0.90;;;21.40;44.60;;;;;;5005885;28;20056;-62
2021/03/06 10:34:25;;;;;;;1.80;0.80;;;21.40;44.50;;;;;;5000426;28;20125;-62
2021/03/06 10:37:06;;;;;;;1.30;0.70;;;21.40;44.50;;;;;;5005859;28;20029;-59
2021/03/06 10:39:31;;;;;;;1.73;0.80;;;21.40;44.50;;;;;;5004042;28;20087;-54
2021/03/06 10:41:58;;;;;;;1.73;0.80;;;21.40;44.50;;;;;;5004765;28;20155;-60
2021/03/06 10:44:24;;;;;;;1.77;0.80;;;21.40;44.50;;;;;;5004381;28;20033;-59
2021/03/06 10:46:58;;;;;;;1.27;0.80;;;21.40;44.50;;;;;;5005599;28;20022;-59
2021/03/06 10:49:47;;;;;;;2.05;0.70;;;21.40;44.50;;;;;;5001426;28;20030;-56
2021/03/06 10:52:41;;;;;;;1.85;0.70;;;21.30;44.30;;;;;;5005138;28;20048;-58
2021/03/06 10:55:08;;;;;;;1.67;0.90;;;21.30;44.20;;;;;;4992566;28;20109;-54
2021/03/06 10:57:33;;;;;;;1.75;0.90;;;21.30;44.20;;;;;;5006683;28;20033;-56
2021/03/06 10:59:59;;;;;;;3.53;0.90;;;21.30;44.10;;;;;;5005302;28;20544;-55
2021/03/06 11:02:30;;;;;;;2.60;0.90;;;21.40;44.10;;;;;;5002176;28;20034;-57
2021/03/06 11:05:19;;;;;;;1.20;0.70;;;21.30;44.00;;;;;;5004033;28;20033;-57
2021/03/06 11:07:45;;;;;;;1.10;0.80;;;21.30;43.90;;;;;;5006184;28;20096;-57
2021/03/06 11:10:11;;;;;;;1.52;0.82;;;21.30;43.90;;;;;;5004770;28;20140;-59
2021/03/06 11:12:37;;;;;;;1.55;0.80;;;21.30;43.90;;;;;;5006968;28;20049;-55
2021/03/06 11:15:17;;;;;;;1.88;0.95;;;21.30;44.10;;;;;;5006134;28;20034;-63
2021/03/06 11:17:45;;;;;;;1.73;0.80;;;21.30;43.90;;;;;;5004617;28;20140;-65
2021/03/06 11:20:14;;;;;;;1.00;0.70;;;21.30;44.00;;;;;;5003165;28;20041;-65
2021/03/06 11:22:40;;;;;;;1.85;0.70;;;21.30;43.90;;;;;;5006263;28;20398;-65
2021/03/06 11:25:09;;;;;;;4.35;0.75;;;21.30;43.90;;;;;;5003384;28;20022;-64
2021/03/06 11:27:42;;;;;;;1.02;0.57;;;21.30;44.00;;;;;;5005690;28;20087;-64
2021/03/06 11:30:09;;;;;;;0.93;0.77;;;21.30;43.90;;;;;;5003677;28;20551;-66
2021/03/06 11:32:35;;;;;;;1.30;0.63;;;21.30;43.90;;;;;;5003595;28;20088;-64
2021/03/06 11:35:01;;;;;;;2.95;0.80;;;21.30;43.90;;;;;;5003969;28;21920;-63
2021/03/06 11:37:26;;;;;;;2.42;0.73;;;21.30;44.00;;;;;;5005261;28;20033;-67
2021/03/06 11:39:52;;;;;;;1.70;0.70;;;21.30;44.00;;;;;;5004571;28;20033;-64
2021/03/06 11:42:17;;;;;;;1.33;0.63;;;21.30;44.40;;;;;;5003424;28;20038;-65
2021/03/06 11:44:43;;;;;;;1.73;0.70;;;21.30;43.90;;;;;;5001511;28;20041;-66
2021/03/06 11:47:09;;;;;;;2.90;0.90;;;21.30;43.90;;;;;;5004388;28;20031;-65
2021/03/06 11:49:34;;;;;;;1.40;0.80;;;21.30;43.80;;;;;;5004926;28;20026;-64
2021/03/06 11:52:00;;;;;;;1.85;0.95;;;21.30;43.80;;;;;;5005804;28;20354;-65
2021/03/06 11:54:26;;;;;;;2.10;0.75;;;21.30;43.80;;;;;;5005226;28;20029;-64
2021/03/06 11:56:51;;;;;;;3.03;0.90;;;21.30;43.80;;;;;;5006315;28;20633;-65
2021/03/06 11:59:17;;;;;;;1.35;0.85;;;21.30;43.70;;;;;;4998249;28;20080;-66
2021/03/06 12:01:43;;;;;;;1.38;0.70;;;21.30;43.60;;;;;;4999092;28;20572;-64
2021/03/06 12:04:08;;;;;;;1.15;0.70;;;21.30;43.60;;;;;;5002515;28;20056;-66
2021/03/06 12:06:34;;;;;;;1.80;0.80;;;21.30;43.50;;;;;;5009626;28;20030;-64
2021/03/06 12:08:59;;;;;;;2.00;0.98;;;21.30;43.60;;;;;;5008819;28;20499;-67
2021/03/06 12:11:25;;;;;;;2.75;0.70;;;21.30;43.50;;;;;;5008282;28;20030;-64
2021/03/06 12:13:51;;;;;;;1.95;0.70;;;21.30;43.60;;;;;;5008736;28;20034;-64
2021/03/06 12:16:16;;;;;;;1.50;0.70;;;21.30;43.60;;;;;;5009746;28;20341;-64
2021/03/06 12:18:45;;;;;;;2.40;0.68;;;21.30;43.60;;;;;;5010360;28;20025;-67
2021/03/06 12:21:11;;;;;;;1.65;0.80;;;21.30;43.60;;;;;;5006316;28;20040;-65
2021/03/06 12:23:36;;;;;;;1.75;0.80;;;21.30;43.60;;;;;;5008521;28;20996;-65
2021/03/06 12:26:02;;;;;;;2.38;0.70;;;21.30;43.60;;;;;;5009724;28;20034;-65
2021/03/06 12:28:28;;;;;;;1.33;0.90;;;21.30;43.50;;;;;;5004443;28;20472;-66
2021/03/06 12:30:53;;;;;;;1.85;0.77;;;21.30;43.50;;;;;;5008891;28;20030;-65
2021/03/06 12:33:19;;;;;;;2.05;0.63;;;21.30;43.50;;;;;;5008526;28;20095;-65
2021/03/06 12:35:44;;;;;;;1.63;0.60;;;21.30;43.50;;;;;;5008310;28;20079;-65
2021/03/06 12:38:10;;;;;;;1.83;0.75;;;21.30;43.50;;;;;;5010441;28;20095;-65
2021/03/06 12:40:36;;;;;;;2.45;0.77;;;21.30;43.50;;;;;;5008079;28;20033;-65
2021/03/06 12:43:01;;;;;;;1.98;0.68;;;21.30;43.60;;;;;;5007452;28;20497;-65
2021/03/06 12:45:27;;;;;;;1.73;0.90;;;21.30;43.60;;;;;;5005638;28;20041;-66
2021/03/06 12:47:53;;;;;;;2.28;0.82;;;21.30;43.60;;;;;;5004919;28;20026;-66
2021/03/06 12:50:18;;;;;;;1.33;0.80;;;21.30;43.60;;;;;;5006267;28;20117;-67
2021/03/06 12:52:46;;;;;;;2.70;0.93;;;21.30;43.70;;;;;;5006920;28;20041;-64
2021/03/06 12:55:12;;;;;;;3.58;1.10;;;21.30;44.20;;;;;;5002229;28;20022;-65
2021/03/06 12:57:38;;;;;;;1.80;0.90;;;21.30;43.70;;;;;;5006485;28;20038;-67